ADDS METAR Data INFO
IDs: Format: Raw Decoded Include TAF

Data at: 0457 UTC 25 May 2018

K0F2 250435Z AUTO 14004KT 10SM CLR 22/20 A3002 RMK AO2 T02230196
K0F2 250415Z AUTO 14003KT 10SM CLR 23/20 A3002 RMK AO2 T02250196
K0F2 250355Z AUTO 00000KT 10SM CLR 23/20 A3002 RMK AO2 T02310195
K0F2 250335Z AUTO 00000KT 10SM CLR 23/20 A3002 RMK AO2 T02310195
K0F2 250315Z AUTO 00000KT 10SM CLR 24/20 A3001 RMK AO2 T02350199
K0F2 250255Z AUTO 00000KT 10SM CLR 24/20 A3001 RMK AO2 T02360198
K0F2 250235Z AUTO 13003KT 10SM CLR 25/20 A3000 RMK AO2 T02450200
K0F2 250215Z AUTO 14003KT 10SM CLR 25/20 A3000 RMK AO2 T02490200
K0F2 250155Z AUTO 14003KT 10SM CLR 25/20 A2999 RMK AO2 T02520203
K0F2 250135Z AUTO 00000KT 10SM CLR 26/20 A2999 RMK AO2 T02600204
K0F2 250115Z AUTO 14003KT 10SM CLR 27/20 A2999 RMK AO2 T02690202
K0F2 250055Z AUTO 15004KT 10SM CLR 28/20 A2999 RMK AO2 T02770200
K0F2 250035Z AUTO 14003KT 10SM CLR 29/20 A2999 RMK AO2 T02860200
K0F2 250015Z AUTO 14003KT 10SM CLR 29/19 A2999 RMK AO2 T02920194
K0F2 242355Z AUTO 14003KT 10SM CLR 30/19 A2999 RMK AO2 T02960193 10310 20283
K0F2 242335Z AUTO 15004KT 10SM CLR 30/19 A2999 RMK AO2 T03000186
K0F2 242315Z AUTO 14003KT 10SM CLR 30/19 A2999 RMK AO2 T03010193
K0F2 242255Z AUTO 14005KT 10SM SCT047 SCT055 31/20 A3000 RMK AO2 T03070202
K0F2 242235Z AUTO 13004KT 10SM CLR 30/20 A3000 RMK AO2 T03040200
K0F2 242215Z AUTO 00000KT 10SM CLR 31/20 A3001 RMK AO2 T03090200
K0F2 242155Z AUTO 17004KT 10SM CLR 31/19 A3001 RMK AO2 T03060194
K0F2 242135Z AUTO 14004KT 10SM SCT047 SCT060 30/19 A3002 RMK AO2 T03040193
K0F2 242115Z AUTO 18008KT 10SM SCT045 BKN060 30/20 A3003 RMK AO2 T03040197
K0F2 242055Z AUTO 15006KT 10SM OVC045 30/20 A3004 RMK AO2 T03000199
K0F2 242035Z AUTO 17003KT 10SM SCT045 30/20 A3004 RMK AO2 T03030203
K0F2 242015Z AUTO 21006KT 10SM SCT043 30/20 A3005 RMK AO2 T03040196
K0F2 241955Z AUTO 19005KT 10SM SCT041 30/20 A3005 RMK AO2 T03010199
K0F2 241935Z AUTO 16005KT 10SM CLR 30/21 A3005 RMK AO2 T02980207
K0F2 241915Z AUTO 15006KT 10SM CLR 30/20 A3006 RMK AO2 T02950199
K0F2 241855Z AUTO 18009KT 10SM SCT034 29/20 A3006 RMK AO2 T02930203
K0F2 241835Z AUTO 16006KT 10SM CLR 29/21 A3006 RMK AO2 T02880207
K0F2 241815Z AUTO 15009KT 10SM CLR 29/21 A3007 RMK AO2 T02880205
K0F2 241755Z AUTO 16008KT 10SM CLR 28/20 A3008 RMK AO2 T02820196 10283 20190
K0F2 241735Z AUTO 15006KT 10SM CLR 28/20 A3009 RMK AO2 T02770202
K0F2 241715Z AUTO 17007KT 10SM SCT032 28/20 A3009 RMK AO2 T02760195
K0F2 241655Z AUTO 18007KT 10SM CLR 28/20 A3009 RMK AO2 T02750199
K0F2 241635Z AUTO 17005KT 10SM SCT024 27/20 A3010 RMK AO2 T02690200
K0F2 241615Z AUTO 15005KT 10SM SCT024 27/21 A3010 RMK AO2 T02720205
K0F2 241555Z AUTO 17005KT 10SM CLR 27/21 A3010 RMK AO2 T02660205
K0F2 241535Z AUTO 00000KT 10SM CLR 26/21 A3010 RMK AO2 T02570206
K0F2 241515Z AUTO 00000KT 10SM SCT016 25/21 A3011 RMK AO2 T02510206
K0F2 241455Z AUTO 25003KT 10SM BKN016 25/21 A3011 RMK AO2 T02530213
K0F2 241435Z AUTO 22006KT 10SM SCT014 25/21 A3011 RMK AO2 T02450210
K0F2 241355Z AUTO 14004KT 10SM CLR 23/21 A3009 RMK AO2 T02310208
K0F2 241335Z AUTO 16004KT 10SM CLR 22/20 A3008 RMK AO2 T02210204
K0F2 241315Z AUTO 14005KT 10SM CLR 21/20 A3008 RMK AO2 T02120197
K0F2 241255Z AUTO 00000KT 10SM CLR 21/19 A3008 RMK AO2 T02050194
K0F2 241235Z AUTO 15004KT 10SM CLR 20/19 A3007 RMK AO2 T02000190
K0F2 241215Z AUTO 14003KT 10SM CLR 20/19 A3007 RMK AO2 T01950187
K0F2 241155Z AUTO 14004KT 7SM CLR 19/18 A3006 RMK AO2 T01880183 10216 20187
K0F2 241135Z AUTO 16003KT 5SM BR CLR 19/18 A3006 RMK AO2 T01880183
K0F2 241115Z AUTO 00000KT 7SM CLR 19/19 A3006 RMK AO2 T01900185
K0F2 241055Z AUTO 13003KT 7SM CLR 19/18 A3006 RMK AO2 T01900184
K0F2 241035Z AUTO 15004KT 10SM CLR 19/19 A3005 RMK AO2 T01930185
K0F2 241015Z AUTO 15003KT 10SM CLR 20/19 A3005 RMK AO2 T01950186
K0F2 240955Z AUTO 00000KT 10SM CLR 20/19 A3005 RMK AO2 T01960186
K0F2 240935Z AUTO 00000KT 10SM CLR 20/19 A3005 RMK AO2 T01980187
K0F2 240915Z AUTO 00000KT 10SM CLR 20/19 A3005 RMK AO2 T02010189
K0F2 240855Z AUTO 11003KT 10SM CLR 20/19 A3005 RMK AO2 T02010189
K0F2 240835Z AUTO 00000KT 10SM CLR 21/19 A3005 RMK AO2 T02050191
K0F2 240815Z AUTO 11003KT 10SM CLR 21/19 A3005 RMK AO2 T02110193
K0F2 240755Z AUTO 16004KT 10SM CLR 21/19 A3005 RMK AO2 T02070190
K0F2 240735Z AUTO 00000KT 10SM CLR 21/19 A3006 RMK AO2 T02050189
K0F2 240715Z AUTO 00000KT 10SM CLR 21/19 A3006 RMK AO2 T02080188
K0F2 240655Z AUTO 00000KT 10SM CLR 21/19 A3006 RMK AO2 T02080189
K0F2 240635Z AUTO 00000KT 10SM CLR 21/19 A3006 RMK AO2 T02080190
K0F2 240615Z AUTO 00000KT 10SM CLR 21/19 A3007 RMK AO2 T02100190
K0F2 240555Z AUTO 14003KT 10SM CLR 22/19 A3007 RMK AO2 T02170187 10295 20207 403100195
K0F2 240535Z AUTO 00000KT 10SM CLR 21/19 A3007 RMK AO2 T02090190
K0F2 240515Z AUTO 00000KT 10SM CLR 21/19 A3007 RMK AO2 T02120192
K0F2 240455Z AUTO 00000KT 10SM CLR 22/20 A3007 RMK AO2 T02150195
K0F2 240435Z AUTO 00000KT 10SM CLR 22/20 A3007 RMK AO2 T02160195
K0F2 240415Z AUTO 00000KT 10SM CLR 22/20 A3006 RMK AO2 T02210198
K0F2 240355Z AUTO 00000KT 10SM CLR 23/20 A3005 RMK AO2 T02290196
K0F2 240335Z AUTO 00000KT 10SM CLR 23/19 A3005 RMK AO2 T02300193
K0F2 240315Z AUTO 00000KT 10SM CLR 23/20 A3004 RMK AO2 T02340195
K0F2 240255Z AUTO 13003KT 10SM CLR 24/20 A3004 RMK AO2 T02380195
K0F2 240235Z AUTO 00000KT 10SM CLR 24/20 A3002 RMK AO2 T02410195
K0F2 240215Z AUTO 00000KT 10SM CLR 24/20 A3001 RMK AO2 T02440197
K0F2 240155Z AUTO 14003KT 10SM CLR 25/20 A3000 RMK AO2 T02480199
K0F2 240135Z AUTO 14003KT 10SM CLR 26/20 A2999 RMK AO2 T02570195
K0F2 240115Z AUTO 12003KT 10SM CLR 27/20 A2998 RMK AO2 T02690197
K0F2 240055Z AUTO 14003KT 10SM CLR 28/20 A2998 RMK AO2 T02790196
K0F2 240035Z AUTO 00000KT 10SM CLR 29/20 A2998 RMK AO2 T02870195
K0F2 240015Z AUTO 14003KT 10SM CLR 29/19 A2999 RMK AO2 T02920188
K0F2 232355Z AUTO 15005KT 10SM CLR 29/18 A2999 RMK AO2 T02940182 10310 20284
K0F2 232335Z AUTO 15005KT 10SM CLR 30/19 A2999 RMK AO2 T03000187
K0F2 232315Z AUTO 15004KT 10SM CLR 30/18 A2999 RMK AO2 T03030184
K0F2 232255Z AUTO 14007KT 10SM CLR 31/18 A2999 RMK AO2 T03050181
K0F2 232235Z AUTO 13005KT 10SM CLR 31/20 A3000 RMK AO2 T03050199
K0F2 232215Z AUTO 13005KT 10SM CLR 30/19 A3000 RMK AO2 T03040192
K0F2 232155Z AUTO 15006KT 10SM CLR 31/19 A3000 RMK AO2 T03060194
K0F2 232135Z AUTO 13003KT 10SM SCT050 30/19 A3000 RMK AO2 T02980191
K0F2 232115Z AUTO 11004KT 10SM SCT050 31/19 A3001 RMK AO2 T03070187
K0F2 232055Z AUTO 18005KT 10SM SCT050 30/18 A3002 RMK AO2 T02990183
K0F2 232035Z AUTO 16006KT 10SM CLR 30/19 A3002 RMK AO2 T03040190
K0F2 232015Z AUTO 14007KT 10SM CLR 30/18 A3002 RMK AO2 T03010181
K0F2 231955Z AUTO 17005KT 10SM CLR 30/18 A3003 RMK AO2 T03000180
K0F2 231935Z AUTO 15005KT 10SM SCT047 30/19 A3004 RMK AO2 T03020186
K0F2 231915Z AUTO 14004KT 10SM SCT045 29/19 A3005 RMK AO2 T02900192
K0F2 231855Z AUTO 14007KT 10SM SCT042 SCT049 30/19 A3006 RMK AO2 T03020191
K0F2 231835Z AUTO 12004KT 10SM SCT040 SCT046 30/20 A3006 RMK AO2 T02970203
K0F2 231815Z AUTO 15003KT 10SM SCT040 SCT046 29/19 A3007 RMK AO2 T02890194
K0F2 231755Z AUTO 14006KT 10SM CLR 29/19 A3007 RMK AO2 T02910192 10291 20195
K0F2 231735Z AUTO 13004KT 10SM CLR 29/19 A3007 RMK AO2 T02870191
K0F2 231715Z AUTO 16008KT 10SM CLR 29/19 A3008 RMK AO2 T02850190